Time;durP1;ratioP1;P1;durP2;ratioP2;P2;SDS_P1;SDS_P2;PMS_P1;PMS_P2;Temp;Humidity;BMP_temperature;BMP_pressure;BME280_temperature;BME280_humidity;BME280_pressure;Samples;Min_cycle;Max_cycle;Signal;HPM_P1;HPM_P2
2022/05/07 00:02:06;;;;;;;47.38;33.70;;;13.90;99.90;;;;;;5029246;28;20057;-61
2022/05/07 00:04:33;;;;;;;50.28;34.72;;;13.90;99.90;;;;;;5029894;28;20083;-61
2022/05/07 00:06:59;;;;;;;53.00;35.38;;;14.00;99.90;;;;;;5018792;28;20049;-64
2022/05/07 00:09:25;;;;;;;52.35;35.22;;;14.00;99.90;;;;;;5028631;28;20049;-61
2022/05/07 00:11:51;;;;;;;51.63;37.13;;;14.00;99.90;;;;;;5010951;28;20060;-62
2022/05/07 00:14:17;;;;;;;48.97;35.67;;;14.00;99.90;;;;;;5028899;28;20049;-61
2022/05/07 00:19:27;;;;;;;50.13;36.92;;;14.00;99.90;;;;;;5029061;28;20111;-61
2022/05/07 00:21:53;;;;;;;53.22;37.63;;;14.10;99.90;;;;;;5029536;28;20081;-61
2022/05/07 00:24:18;;;;;;;52.30;35.92;;;14.00;99.90;;;;;;5027346;28;20548;-63
2022/05/07 00:26:45;;;;;;;49.33;36.45;;;14.00;99.90;;;;;;5027570;28;20120;-60
2022/05/07 00:29:10;;;;;;;52.30;36.75;;;14.10;99.90;;;;;;5027639;28;20128;-61
2022/05/07 00:31:36;;;;;;;50.85;35.78;;;14.10;99.90;;;;;;5028418;28;20053;-61
2022/05/07 00:34:02;;;;;;;52.25;35.75;;;14.10;99.90;;;;;;5028734;28;20046;-60
2022/05/07 00:36:27;;;;;;;52.58;36.38;;;14.10;99.90;;;;;;5007528;28;20065;-61
2022/05/07 00:38:53;;;;;;;49.50;34.85;;;14.10;99.90;;;;;;5020043;28;20076;-61
2022/05/07 00:41:19;;;;;;;50.03;34.08;;;14.10;99.90;;;;;;5029086;28;20083;-60
2022/05/07 00:43:45;;;;;;;50.33;35.45;;;14.10;99.90;;;;;;5033748;28;20057;-61
2022/05/07 00:46:11;;;;;;;49.42;34.55;;;14.10;99.90;;;;;;5029976;28;20103;-60
2022/05/07 00:48:38;;;;;;;52.47;36.50;;;14.10;99.90;;;;;;5014115;28;20129;-61
2022/05/07 00:53:50;;;;;;;55.45;36.80;;;14.10;99.90;;;;;;5033810;28;20065;-61
2022/05/07 00:56:17;;;;;;;53.25;35.10;;;14.10;99.90;;;;;;5031241;28;20057;-61
2022/05/07 00:58:42;;;;;;;53.33;35.83;;;14.10;99.90;;;;;;5031684;28;20037;-60
2022/05/07 01:01:08;;;;;;;47.58;33.83;;;14.10;99.90;;;;;;5029880;28;20119;-64
2022/05/07 01:03:35;;;;;;;52.72;35.78;;;14.00;99.90;;;;;;5033755;28;20060;-60
2022/05/07 01:06:01;;;;;;;48.10;35.22;;;14.00;99.90;;;;;;5033589;28;20060;-61
2022/05/07 01:08:30;;;;;;;51.40;35.80;;;13.90;99.90;;;;;;5030716;28;20076;-64
2022/05/07 01:10:57;;;;;;;55.28;36.63;;;13.90;99.90;;;;;;5032090;28;20403;-60
2022/05/07 01:13:23;;;;;;;44.65;34.33;;;13.90;99.90;;;;;;5032956;28;20514;-62
2022/05/07 01:15:54;;;;;;;53.70;37.15;;;13.90;99.90;;;;;;5032176;28;20060;-62
2022/05/07 01:18:20;;;;;;;52.10;36.78;;;13.90;99.90;;;;;;5030885;28;20052;-63
2022/05/07 01:20:45;;;;;;;53.97;34.83;;;13.90;99.90;;;;;;5032184;28;20045;-60
2022/05/07 01:23:12;;;;;;;48.58;35.22;;;13.90;99.90;;;;;;5031786;28;20037;-63
2022/05/07 01:25:38;;;;;;;50.60;33.78;;;13.90;99.90;;;;;;5014836;28;20049;-61
2022/05/07 01:28:04;;;;;;;47.15;34.00;;;13.90;99.90;;;;;;5031572;28;20049;-61
2022/05/07 01:30:31;;;;;;;49.35;34.88;;;13.90;99.90;;;;;;5031445;28;20143;-61
2022/05/07 01:32:56;;;;;;;46.17;33.60;;;13.90;99.90;;;;;;5032696;28;20275;-61
2022/05/07 01:35:22;;;;;;;46.53;32.92;;;13.90;99.90;;;;;;5033791;28;20058;-62
2022/05/07 01:37:48;;;;;;;48.40;33.85;;;13.80;99.90;;;;;;5033756;28;20057;-62
2022/05/07 01:40:14;;;;;;;51.17;35.03;;;13.90;99.90;;;;;;5033779;28;20076;-68
2022/05/07 01:42:39;;;;;;;47.65;33.30;;;13.90;99.90;;;;;;5034407;28;20339;-61
2022/05/07 01:45:06;;;;;;;52.28;33.88;;;13.80;99.90;;;;;;5034108;28;20084;-61
2022/05/07 01:50:20;;;;;;;47.13;31.77;;;13.80;99.90;;;;;;5033633;28;20162;-61
2022/05/07 01:52:45;;;;;;;48.70;32.72;;;13.90;99.90;;;;;;5033732;28;20088;-65
2022/05/07 01:55:11;;;;;;;48.28;32.45;;;13.80;99.90;;;;;;5032523;28;20541;-62
2022/05/07 01:57:36;;;;;;;44.67;33.60;;;13.80;99.90;;;;;;5032466;28;20486;-61
2022/05/07 02:00:03;;;;;;;45.13;32.88;;;13.80;99.90;;;;;;5033788;28;20486;-61
2022/05/07 02:02:28;;;;;;;49.05;33.58;;;13.80;99.90;;;;;;5033323;28;20095;-63
2022/05/07 02:04:54;;;;;;;50.67;33.88;;;13.80;99.90;;;;;;5032635;28;20045;-62
2022/05/07 02:07:20;;;;;;;44.20;32.45;;;13.80;99.90;;;;;;5033251;28;20060;-62
2022/05/07 02:09:45;;;;;;;46.83;32.38;;;13.80;99.90;;;;;;5033509;28;20414;-62
2022/05/07 02:12:11;;;;;;;48.40;31.65;;;13.80;99.90;;;;;;5033634;28;20044;-62
2022/05/07 02:14:37;;;;;;;47.25;32.10;;;13.90;99.90;;;;;;5015788;28;20140;-62
2022/05/07 02:17:03;;;;;;;49.08;33.95;;;13.80;99.90;;;;;;5032243;28;20081;-62
2022/05/07 02:19:28;;;;;;;46.33;30.60;;;13.90;99.90;;;;;;5033079;28;20548;-62
2022/05/07 02:21:54;;;;;;;48.30;31.90;;;13.90;99.90;;;;;;5033535;28;20094;-63
2022/05/07 02:24:20;;;;;;;48.65;31.95;;;13.90;99.90;;;;;;5015186;28;20133;-67
2022/05/07 02:26:45;;;;;;;46.60;31.63;;;13.90;99.90;;;;;;5032245;28;20050;-63
2022/05/07 02:29:13;;;;;;;46.65;30.15;;;13.90;99.90;;;;;;5033352;28;20037;-62
2022/05/07 02:31:39;;;;;;;46.45;31.65;;;13.90;99.90;;;;;;5032675;28;20057;-62
2022/05/07 02:34:04;;;;;;;47.75;32.80;;;13.90;99.90;;;;;;5033169;28;20525;-63
2022/05/07 02:36:32;;;;;;;43.80;30.33;;;13.90;99.90;;;;;;5031405;28;20468;-63
2022/05/07 02:38:58;;;;;;;46.97;31.98;;;13.90;99.90;;;;;;5031752;28;20041;-62
2022/05/07 02:44:09;;;;;;;46.28;31.40;;;13.90;99.90;;;;;;5031447;28;20640;-62
2022/05/07 02:46:35;;;;;;;48.75;32.00;;;13.90;99.90;;;;;;5032264;28;20037;-62
2022/05/07 02:49:01;;;;;;;47.90;30.70;;;13.90;99.90;;;;;;5031518;28;20041;-62
2022/05/07 02:51:27;;;;;;;50.65;30.67;;;13.90;99.90;;;;;;5032375;28;20058;-60
2022/05/07 02:53:52;;;;;;;41.38;29.67;;;14.00;99.90;;;;;;5032757;28;20045;-62
2022/05/07 02:56:18;;;;;;;46.42;29.95;;;14.00;99.90;;;;;;5032738;28;20049;-62
2022/05/07 02:58:44;;;;;;;44.35;29.77;;;13.90;99.90;;;;;;5032330;28;20541;-64
2022/05/07 03:01:09;;;;;;;40.95;29.15;;;14.00;99.90;;;;;;5032643;28;20045;-62
2022/05/07 03:03:35;;;;;;;44.05;29.27;;;14.00;99.90;;;;;;5032318;28;20493;-62
2022/05/07 03:06:01;;;;;;;42.72;29.50;;;14.00;99.90;;;;;;5032012;28;20046;-62
2022/05/07 03:08:27;;;;;;;43.28;30.05;;;14.00;99.90;;;;;;5030919;28;20053;-63
2022/05/07 03:10:53;;;;;;;43.13;29.35;;;14.00;99.90;;;;;;5032442;28;20088;-62
2022/05/07 03:13:18;;;;;;;43.92;28.77;;;14.00;99.90;;;;;;5032376;28;20136;-61
2022/05/07 03:15:44;;;;;;;42.08;29.33;;;14.00;99.90;;;;;;5031934;28;20056;-62
2022/05/07 03:18:12;;;;;;;41.50;28.58;;;14.00;99.90;;;;;;5031178;28;20048;-62
2022/05/07 03:20:40;;;;;;;40.63;28.65;;;14.00;99.90;;;;;;5031824;28;20080;-62
2022/05/07 03:23:06;;;;;;;39.83;29.35;;;14.00;99.90;;;;;;5032344;28;20119;-65
2022/05/07 03:25:32;;;;;;;39.97;27.42;;;13.90;99.90;;;;;;5031805;28;20042;-61
2022/05/07 03:27:57;;;;;;;39.45;28.35;;;13.90;99.90;;;;;;5032099;28;20057;-61
2022/05/07 03:30:23;;;;;;;42.05;28.45;;;13.90;99.90;;;;;;5030883;28;20049;-62
2022/05/07 03:32:49;;;;;;;41.03;28.30;;;13.90;99.90;;;;;;5031853;28;20192;-62
2022/05/07 03:35:14;;;;;;;39.95;27.63;;;13.90;99.90;;;;;;5030660;28;20053;-61
2022/05/07 03:37:40;;;;;;;39.95;28.42;;;13.80;99.90;;;;;;5031474;28;20045;-62
2022/05/07 03:40:07;;;;;;;42.67;28.63;;;13.80;99.90;;;;;;5029799;28;20128;-61
2022/05/07 03:42:33;;;;;;;38.10;26.77;;;13.80;99.90;;;;;;5031497;28;20045;-62
2022/05/07 03:45:00;;;;;;;37.78;27.27;;;13.80;99.90;;;;;;5031730;28;20167;-61
2022/05/07 03:47:26;;;;;;;41.30;28.92;;;13.80;99.90;;;;;;5031835;28;20131;-61
2022/05/07 03:49:51;;;;;;;44.25;30.90;;;13.80;99.90;;;;;;5031366;28;20263;-63
2022/05/07 03:55:01;;;;;;;41.47;27.38;;;13.70;99.90;;;;;;5030581;28;20129;-61
2022/05/07 03:57:27;;;;;;;38.90;27.85;;;13.60;99.90;;;;;;5031412;28;20431;-62
2022/05/07 03:59:52;;;;;;;34.65;25.15;;;13.60;99.90;;;;;;5031427;28;20049;-61
2022/05/07 04:02:18;;;;;;;31.60;24.85;;;13.60;99.90;;;;;;5031378;28;20071;-62
2022/05/07 04:04:44;;;;;;;33.85;27.83;;;13.60;99.90;;;;;;5029909;28;20099;-61
2022/05/07 04:07:09;;;;;;;38.35;26.13;;;13.60;99.90;;;;;;5031592;28;20475;-61
2022/05/07 04:09:36;;;;;;;31.55;25.10;;;13.60;99.90;;;;;;5031348;28;20060;-63
2022/05/07 04:12:02;;;;;;;38.28;26.33;;;13.60;99.90;;;;;;5030248;28;20049;-61
2022/05/07 04:14:28;;;;;;;38.40;26.17;;;13.60;99.90;;;;;;5030872;28;20635;-61
2022/05/07 04:16:54;;;;;;;34.88;26.83;;;13.60;99.90;;;;;;5028651;28;20125;-61
2022/05/07 04:19:19;;;;;;;31.10;24.73;;;13.60;99.90;;;;;;5029968;28;20120;-62
2022/05/07 04:21:45;;;;;;;33.30;25.55;;;13.60;99.90;;;;;;5029685;28;20136;-62
2022/05/07 04:24:11;;;;;;;34.72;25.42;;;13.60;99.90;;;;;;5031493;28;20099;-62
2022/05/07 04:26:36;;;;;;;34.17;25.33;;;13.60;99.90;;;;;;5029593;28;20641;-67
2022/05/07 04:29:02;;;;;;;30.75;25.50;;;13.50;99.90;;;;;;5030927;28;20128;-63
2022/05/07 04:31:28;;;;;;;33.22;25.48;;;13.60;99.90;;;;;;5030888;28;20046;-63
2022/05/07 04:33:54;;;;;;;32.65;26.17;;;13.60;99.90;;;;;;5012831;28;20037;-62
2022/05/07 04:36:19;;;;;;;36.78;26.95;;;13.60;99.90;;;;;;5031152;28;20053;-61
2022/05/07 04:38:45;;;;;;;39.83;27.13;;;13.50;99.90;;;;;;5029139;28;20399;-61
2022/05/07 04:41:11;;;;;;;37.00;27.45;;;13.50;99.90;;;;;;5029550;28;20045;-61
2022/05/07 04:43:37;;;;;;;37.92;28.25;;;13.50;99.90;;;;;;5030912;28;20057;-68
2022/05/07 04:46:02;;;;;;;41.72;29.15;;;13.40;99.90;;;;;;5030694;28;20076;-62
2022/05/07 04:48:28;;;;;;;42.25;29.88;;;13.40;99.90;;;;;;5029686;28;20121;-61
2022/05/07 04:50:54;;;;;;;43.67;31.08;;;13.30;99.90;;;;;;5030371;28;20053;-61
2022/05/07 04:53:20;;;;;;;43.13;30.02;;;13.20;99.90;;;;;;5029830;28;20045;-61
2022/05/07 04:55:45;;;;;;;46.70;32.30;;;13.20;99.90;;;;;;5030060;28;20045;-62
2022/05/07 04:58:11;;;;;;;41.45;31.10;;;13.20;99.90;;;;;;5030872;28;20045;-63
2022/05/07 05:00:36;;;;;;;43.58;30.80;;;13.20;99.90;;;;;;5030511;28;20128;-62
2022/05/07 05:03:02;;;;;;;48.10;33.03;;;13.20;99.90;;;;;;5030366;28;20041;-61
2022/05/07 05:05:29;;;;;;;43.70;32.13;;;13.20;99.90;;;;;;5030811;28;20048;-61
2022/05/07 05:07:55;;;;;;;40.65;31.00;;;13.20;99.90;;;;;;5029113;28;20038;-62
2022/05/07 05:10:22;;;;;;;43.28;30.85;;;13.20;99.90;;;;;;5030833;28;20046;-62
2022/05/07 05:12:48;;;;;;;47.38;31.50;;;13.30;99.90;;;;;;5028957;28;20045;-63
2022/05/07 05:15:14;;;;;;;46.97;30.77;;;13.30;99.90;;;;;;5029464;28;20128;-63
2022/05/07 05:17:40;;;;;;;39.80;30.23;;;13.20;99.90;;;;;;5029608;28;20050;-62
2022/05/07 05:20:06;;;;;;;41.08;30.92;;;13.30;99.90;;;;;;5030367;28;20129;-62
2022/05/07 05:22:32;;;;;;;40.78;30.98;;;13.30;99.90;;;;;;5030535;28;20122;-62
2022/05/07 05:24:58;;;;;;;39.90;29.75;;;13.30;99.90;;;;;;5030258;28;20141;-61
2022/05/07 05:27:24;;;;;;;40.35;29.52;;;13.30;99.90;;;;;;5030739;28;20506;-62
2022/05/07 05:29:49;;;;;;;44.45;31.65;;;13.40;99.90;;;;;;5033756;28;20099;-63
2022/05/07 05:32:19;;;;;;;40.40;29.88;;;13.40;99.90;;;;;;5034396;28;20124;-64
2022/05/07 05:34:53;;;;;;;42.88;30.75;;;13.40;99.90;;;;;;5032456;28;20512;-69
2022/05/07 05:37:19;;;;;;;43.42;30.98;;;13.40;99.90;;;;;;5034099;28;20103;-63
2022/05/07 05:39:45;;;;;;;42.58;31.00;;;13.40;99.90;;;;;;5034100;28;20128;-69
2022/05/07 05:42:12;;;;;;;40.83;31.17;;;13.40;99.90;;;;;;5032789;28;20057;-61
2022/05/07 05:44:41;;;;;;;41.45;30.92;;;13.40;99.90;;;;;;5033887;28;20049;-62
2022/05/07 05:47:08;;;;;;;43.58;32.15;;;13.50;99.90;;;;;;5033487;28;20196;-63
2022/05/07 05:49:34;;;;;;;36.42;27.60;;;13.50;99.90;;;;;;5033775;28;20053;-61
2022/05/07 05:52:05;;;;;;;39.85;29.00;;;13.50;99.90;;;;;;5032219;28;20441;-62
2022/05/07 05:54:31;;;;;;;39.28;30.02;;;13.60;99.90;;;;;;5033691;28;20483;-62
2022/05/07 05:56:58;;;;;;;39.65;29.60;;;13.70;99.90;;;;;;5032138;28;20067;-63
2022/05/07 05:59:24;;;;;;;39.10;29.67;;;13.70;99.90;;;;;;5033499;28;20064;-61
2022/05/07 06:01:50;;;;;;;40.03;28.70;;;13.80;99.90;;;;;;5033302;28;20057;-66
2022/05/07 06:04:16;;;;;;;33.58;27.55;;;14.00;99.90;;;;;;5033782;28;20053;-62
2022/05/07 06:06:42;;;;;;;35.65;27.40;;;14.20;99.90;;;;;;5033419;28;20486;-61
2022/05/07 06:09:08;;;;;;;33.75;25.35;;;14.50;99.90;;;;;;5033068;28;20132;-62
2022/05/07 06:11:34;;;;;;;30.83;25.65;;;14.80;99.90;;;;;;5032227;28;20549;-61
2022/05/07 06:13:59;;;;;;;33.15;26.70;;;15.10;99.90;;;;;;5031953;28;20096;-62
2022/05/07 06:16:25;;;;;;;31.55;25.75;;;15.40;99.90;;;;;;5033508;28;20045;-63
2022/05/07 06:18:51;;;;;;;30.73;25.20;;;15.60;99.90;;;;;;5033181;28;20455;-68
2022/05/07 06:21:17;;;;;;;32.47;25.02;;;15.70;99.90;;;;;;5032294;28;20049;-62
2022/05/07 06:23:43;;;;;;;29.48;24.98;;;15.90;99.90;;;;;;5015947;28;20052;-62
2022/05/07 06:28:54;;;;;;;;;;;16.20;99.90;;;;;;5033270;28;20143;-68
2022/05/07 06:31:19;;;;;;;31.27;23.52;;;16.40;99.90;;;;;;5031953;28;19925;-66
2022/05/07 06:33:45;;;;;;;28.08;23.10;;;16.70;99.90;;;;;;5033261;28;20046;-62
2022/05/07 06:36:11;;;;;;;26.13;22.42;;;17.10;99.90;;;;;;5032792;28;20057;-62
2022/05/07 06:38:38;;;;;;;25.88;21.00;;;17.60;99.90;;;;;;5032993;28;20067;-62
2022/05/07 06:41:06;;;;;;;25.50;21.58;;;17.90;99.90;;;;;;5031583;28;20492;-63
2022/05/07 06:43:33;;;;;;;22.25;19.88;;;18.20;99.90;;;;;;5032885;28;20048;-62
2022/05/07 06:45:59;;;;;;;24.05;20.58;;;18.60;99.90;;;;;;5032520;28;20085;-62
2022/05/07 06:48:26;;;;;;;21.83;19.38;;;18.90;99.90;;;;;;5031346;28;20348;-62
2022/05/07 06:50:53;;;;;;;22.02;19.73;;;19.20;99.90;;;;;;5032917;28;20122;-62
2022/05/07 06:53:19;;;;;;;24.15;19.90;;;19.20;99.90;;;;;;5014971;28;20050;-62
2022/05/07 06:56:00;;;;;;;22.08;19.27;;;18.80;99.90;;;;;;5032672;28;20080;-62
2022/05/07 06:58:33;;;;;;;23.42;19.23;;;18.50;99.90;;;;;;5032440;28;20099;-64
2022/05/07 07:01:03;;;;;;;23.67;18.80;;;18.10;99.90;;;;;;5031071;28;20060;-66
2022/05/07 07:03:30;;;;;;;23.92;19.77;;;17.90;99.90;;;;;;5032747;28;20045;-62
2022/05/07 07:05:57;;;;;;;26.45;19.98;;;17.70;99.90;;;;;;5032538;28;20072;-60
2022/05/07 07:08:24;;;;;;;30.10;22.05;;;17.50;99.90;;;;;;5032276;28;20049;-62
2022/05/07 07:10:49;;;;;;;27.90;22.33;;;17.50;99.90;;;;;;5031344;28;20483;-61
2022/05/07 07:13:18;;;;;;;32.28;24.20;;;17.80;99.90;;;;;;5031782;28;20103;-62
2022/05/07 07:15:44;;;;;;;30.95;23.85;;;18.00;99.90;;;;;;5032360;28;20052;-62
2022/05/07 07:18:10;;;;;;;33.30;25.83;;;18.20;99.90;;;;;;5031435;28;20172;-62
2022/05/07 07:20:41;;;;;;;35.53;25.58;;;18.50;99.90;;;;;;5031003;28;20065;-60
2022/05/07 07:23:11;;;;;;;32.67;25.33;;;18.80;99.90;;;;;;5031925;28;20053;-62
2022/05/07 07:25:46;;;;;;;34.60;26.90;;;18.90;99.90;;;;;;5032199;28;20110;-63
2022/05/07 07:28:13;;;;;;;30.88;24.80;;;18.90;99.90;;;;;;5030865;28;20053;-60
2022/05/07 07:30:39;;;;;;;29.55;24.17;;;18.80;99.90;;;;;;5030725;28;20046;-63
2022/05/07 07:33:05;;;;;;;29.58;23.85;;;18.80;99.90;;;;;;5031670;28;20081;-62
2022/05/07 07:35:31;;;;;;;31.80;23.60;;;19.00;99.90;;;;;;5014001;28;20103;-63
2022/05/07 07:37:57;;;;;;;27.38;22.40;;;19.20;99.90;;;;;;5031972;28;20483;-62
2022/05/07 07:40:23;;;;;;;27.08;20.90;;;19.40;99.90;;;;;;5030448;28;20037;-62
2022/05/07 07:42:49;;;;;;;24.02;20.20;;;19.50;99.90;;;;;;5031887;28;20041;-62
2022/05/07 07:48:00;;;;;;;27.50;20.95;;;19.30;99.90;;;;;;5031896;28;20045;-61
2022/05/07 07:50:35;;;;;;;26.48;21.70;;;19.30;99.90;;;;;;5031114;28;20053;-61
2022/05/07 07:53:03;;;;;;;26.33;19.52;;;19.20;99.90;;;;;;5031687;28;20056;-62
2022/05/07 07:55:29;;;;;;;25.77;20.90;;;19.00;99.90;;;;;;5031365;28;20331;-63
2022/05/07 07:58:00;;;;;;;29.23;22.20;;;19.20;99.90;;;;;;5031599;28;20049;-62
2022/05/07 08:00:27;;;;;;;31.55;25.33;;;19.30;99.90;;;;;;5031203;28;20053;-62
2022/05/07 08:02:55;;;;;;;34.22;26.27;;;19.60;99.90;;;;;;5030982;28;20136;-64
2022/05/07 08:05:29;;;;;;;32.38;25.02;;;19.40;99.90;;;;;;5030979;28;20123;-62
2022/05/07 08:13:24;;;;;;;37.65;28.50;;;18.70;99.90;;;;;;5030652;28;20533;-63
2022/05/07 08:15:50;;;;;;;36.38;28.98;;;18.40;99.90;;;;;;5031289;28;20049;-62
2022/05/07 08:18:16;;;;;;;38.45;29.73;;;18.20;99.90;;;;;;5031063;28;20486;-62
2022/05/07 08:20:43;;;;;;;37.78;28.70;;;18.00;99.90;;;;;;5031342;28;20046;-63
2022/05/07 08:23:10;;;;;;;37.97;29.40;;;17.80;99.90;;;;;;5029548;28;20132;-68
2022/05/07 08:25:37;;;;;;;37.95;28.67;;;17.60;99.90;;;;;;5030137;28;20441;-62
2022/05/07 08:28:04;;;;;;;37.15;27.88;;;17.50;99.90;;;;;;5029699;28;20132;-64
2022/05/07 08:30:30;;;;;;;39.40;29.77;;;17.40;99.90;;;;;;5030598;28;20047;-63
2022/05/07 08:32:56;;;;;;;44.13;30.73;;;17.40;99.90;;;;;;5030918;28;20124;-62
2022/05/07 08:35:22;;;;;;;41.75;31.52;;;17.30;99.90;;;;;;5030356;28;20057;-62
2022/05/07 08:37:50;;;;;;;44.22;31.50;;;17.10;99.90;;;;;;5029407;28;20060;-65
2022/05/07 08:40:18;;;;;;;43.22;32.05;;;17.10;99.90;;;;;;5029694;28;20523;-63
2022/05/07 08:42:45;;;;;;;46.35;32.60;;;17.10;99.90;;;;;;5030842;28;20061;-63
2022/05/07 08:45:12;;;;;;;47.10;32.88;;;17.00;99.90;;;;;;5030897;28;20045;-67
2022/05/07 08:47:39;;;;;;;45.80;32.28;;;16.90;99.90;;;;;;5030591;28;20049;-61
2022/05/07 08:50:11;;;;;;;46.05;32.13;;;16.80;99.90;;;;;;5030851;28;20054;-62
2022/05/07 08:52:42;;;;;;;40.55;30.48;;;16.80;99.90;;;;;;5030077;28;20506;-62
2022/05/07 08:55:13;;;;;;;39.17;28.83;;;16.80;99.90;;;;;;5029489;28;20419;-62
2022/05/07 08:57:40;;;;;;;42.28;30.27;;;16.90;99.90;;;;;;5030496;28;20050;-62
2022/05/07 09:00:08;;;;;;;43.42;29.92;;;17.10;99.90;;;;;;5030105;28;20555;-62
2022/05/07 09:02:42;;;;;;;36.75;28.23;;;17.30;99.90;;;;;;5029388;28;20139;-62
2022/05/07 09:05:09;;;;;;;;;;;17.40;99.90;;;;;;5034505;28;20041;-62
2022/05/07 09:07:35;;;;;;;30.52;24.48;;;17.50;99.90;;;;;;5032215;28;19927;-62
2022/05/07 09:10:00;;;;;;;31.50;23.63;;;17.60;99.90;;;;;;5034036;28;20136;-62
2022/05/07 09:12:28;;;;;;;30.23;22.98;;;17.70;99.90;;;;;;5033267;28;20099;-62
2022/05/07 09:15:08;;;;;;;33.42;24.73;;;17.80;99.90;;;;;;5034471;28;20096;-63
2022/05/07 09:17:35;;;;;;;32.85;24.50;;;17.80;99.90;;;;;;5034009;28;20052;-62
2022/05/07 09:20:18;;;;;;;29.77;24.40;;;17.80;99.90;;;;;;5034437;28;20047;-63
2022/05/07 09:22:55;;;;;;;37.90;26.40;;;17.80;99.90;;;;;;5034436;28;20433;-65
2022/05/07 09:25:27;;;;;;;32.97;25.10;;;17.70;99.90;;;;;;5033824;28;20045;-63
2022/05/07 09:27:56;;;;;;;33.35;25.85;;;17.80;99.90;;;;;;5034213;28;20037;-62
2022/05/07 09:30:24;;;;;;;32.10;25.38;;;17.90;99.90;;;;;;5032786;28;20115;-62
2022/05/07 09:32:51;;;;;;;31.85;24.55;;;17.90;99.90;;;;;;5033229;28;20121;-64
2022/05/07 09:38:03;;;;;;;33.10;25.73;;;17.80;99.90;;;;;;5033798;28;20049;-62
2022/05/07 09:40:30;;;;;;;32.00;24.75;;;17.80;99.90;;;;;;5033567;28;20124;-62
2022/05/07 09:42:59;;;;;;;33.65;25.30;;;17.80;99.90;;;;;;5032874;28;20103;-63
2022/05/07 09:45:27;;;;;;;33.80;25.90;;;17.80;99.90;;;;;;5032363;28;20057;-64
2022/05/07 09:47:55;;;;;;;36.70;27.10;;;17.70;99.90;;;;;;5033739;28;20045;-63
2022/05/07 09:50:43;;;;;;;36.88;26.98;;;17.70;99.90;;;;;;5033833;28;20137;-70
2022/05/07 09:58:49;;;;;;;40.67;28.10;;;17.90;99.90;;;;;;5032267;28;20049;-62
2022/05/07 10:01:21;;;;;;;35.72;27.13;;;17.90;99.90;;;;;;5016323;28;20049;-62
2022/05/07 10:04:22;;;;;;;38.72;27.75;;;18.00;99.90;;;;;;5033418;28;20136;-63
2022/05/07 10:07:09;;;;;;;36.95;27.13;;;18.00;99.90;;;;;;5033543;28;20055;-62
2022/05/07 10:10:12;;;;;;;36.58;26.70;;;18.20;99.90;;;;;;5032845;28;20045;-62
2022/05/07 10:12:45;;;;;;;32.35;24.20;;;18.30;99.90;;;;;;5033100;28;20045;-63
2022/05/07 10:15:16;;;;;;;32.93;24.20;;;18.40;99.90;;;;;;5033549;28;20041;-62
2022/05/07 10:17:44;;;;;;;32.45;23.75;;;18.60;99.90;;;;;;5033110;28;20042;-62
2022/05/07 10:20:12;;;;;;;35.42;25.42;;;18.70;99.90;;;;;;5032233;28;20049;-63
2022/05/07 10:22:39;;;;;;;37.55;27.88;;;18.90;99.90;;;;;;5032438;28;20491;-64
2022/05/07 10:25:12;;;;;;;35.75;27.67;;;19.00;99.90;;;;;;5032661;28;20610;-64
2022/05/07 10:27:42;;;;;;;37.40;28.08;;;18.90;99.90;;;;;;5031772;28;20053;-64
2022/05/07 10:30:22;;;;;;;31.17;24.55;;;18.70;99.90;;;;;;5032005;28;20041;-64
2022/05/07 10:32:58;;;;;;;37.45;25.52;;;18.60;99.90;;;;;;5032720;28;20049;-63
2022/05/07 10:35:51;;;;;;;36.30;24.67;;;18.60;99.90;;;;;;5032590;28;20498;-63
2022/05/07 10:38:23;;;;;;;38.58;27.80;;;18.70;99.90;;;;;;5032969;28;20053;-65
2022/05/07 10:40:53;;;;;;;39.88;29.52;;;18.80;99.90;;;;;;5032488;28;20056;-63
2022/05/07 10:43:24;;;;;;;37.33;27.67;;;18.70;99.90;;;;;;5033093;28;20120;-63
2022/05/07 10:45:55;;;;;;;37.88;28.98;;;18.50;99.90;;;;;;5032482;28;20407;-62
2022/05/07 10:48:21;;;;;;;37.97;27.23;;;18.30;99.90;;;;;;5031738;28;20101;-63
2022/05/07 10:50:51;;;;;;;37.90;26.20;;;18.00;99.90;;;;;;5032571;28;20053;-62
2022/05/07 10:53:18;;;;;;;35.25;25.55;;;17.90;99.90;;;;;;5015521;28;20071;-63
2022/05/07 10:55:43;;;;;;;32.22;23.15;;;17.80;99.90;;;;;;5032554;28;20116;-62
2022/05/07 10:58:09;;;;;;;33.15;22.77;;;17.80;99.90;;;;;;5032599;28;20041;-61
2022/05/07 11:00:36;;;;;;;29.23;21.55;;;17.90;99.90;;;;;;5032191;28;20479;-63
2022/05/07 11:03:02;;;;;;;27.25;19.63;;;17.90;99.90;;;;;;5031633;28;20406;-64
2022/05/07 11:05:35;;;;;;;27.45;20.02;;;17.90;99.90;;;;;;5032591;28;20049;-63
2022/05/07 11:08:02;;;;;;;28.70;21.70;;;17.90;99.90;;;;;;5032474;28;20049;-62
2022/05/07 11:10:30;;;;;;;31.48;21.23;;;17.90;99.90;;;;;;5032642;28;20130;-62
2022/05/07 11:13:09;;;;;;;28.80;21.20;;;17.80;99.90;;;;;;5030596;28;20073;-63
2022/05/07 11:15:35;;;;;;;25.48;20.42;;;17.70;99.90;;;;;;5032172;28;20060;-64
2022/05/07 11:18:12;;;;;;;27.10;18.58;;;17.80;99.90;;;;;;5030891;28;20483;-63
2022/05/07 11:20:38;;;;;;;21.80;17.80;;;17.70;99.90;;;;;;5031391;28;20429;-65
2022/05/07 11:23:04;;;;;;;26.17;16.73;;;17.80;99.90;;;;;;5031082;28;20049;-65
2022/05/07 11:25:30;;;;;;;20.98;14.02;;;17.80;99.90;;;;;;5031720;28;20061;-62
2022/05/07 11:27:58;;;;;;;22.55;14.30;;;17.70;99.90;;;;;;5013942;28;20168;-63
2022/05/07 11:30:25;;;;;;;16.92;12.30;;;17.60;99.90;;;;;;5030985;28;20084;-62
2022/05/07 11:32:52;;;;;;;16.77;12.55;;;17.60;99.90;;;;;;5030378;28;20053;-63
2022/05/07 11:35:24;;;;;;;22.67;13.05;;;17.70;99.90;;;;;;5031437;28;20132;-62
2022/05/07 11:37:50;;;;;;;18.05;12.93;;;17.80;99.90;;;;;;5031504;28;20132;-62
2022/05/07 11:40:27;;;;;;;14.00;10.77;;;17.90;99.90;;;;;;5014401;28;20120;-62
2022/05/07 11:45:25;;;;;;;13.27;9.25;;;18.00;99.90;;;;;;5030720;28;20092;-62
2022/05/07 11:45:39;;;;;;;10.52;7.25;;;18.10;99.90;;;;;;5030411;28;20069;-65
2022/05/07 11:48:13;;;;;;;13.68;7.82;;;18.10;99.90;;;;;;5031433;28;20072;-62
2022/05/07 11:50:41;;;;;;;;;;;18.00;99.90;;;;;;5032340;28;20052;-68
2022/05/07 11:53:10;;;;;;;10.85;7.65;;;17.80;99.90;;;;;;5031809;28;19968;-64
2022/05/07 11:55:36;;;;;;;10.65;8.70;;;17.70;99.90;;;;;;5031643;28;20066;-62
2022/05/07 11:58:18;;;;;;;11.18;7.80;;;17.60;99.90;;;;;;5031403;28;20114;-62
2022/05/07 12:00:45;;;;;;;12.27;8.48;;;17.60;99.90;;;;;;5031220;28;20114;-62
2022/05/07 12:03:11;;;;;;;12.57;8.10;;;17.70;99.90;;;;;;5030443;28;20057;-62
2022/05/07 12:05:48;;;;;;;13.82;9.30;;;17.70;99.90;;;;;;5030403;28;20057;-64
2022/05/07 12:08:38;;;;;;;13.07;8.48;;;17.70;99.90;;;;;;5030652;28;20053;-62
2022/05/07 12:11:04;;;;;;;9.77;8.00;;;17.70;99.90;;;;;;5030715;28;20064;-62
2022/05/07 12:13:30;;;;;;;12.93;9.23;;;17.80;99.90;;;;;;5031595;28;20089;-62
2022/05/07 12:18:47;;;;;;;12.15;8.55;;;17.50;99.90;;;;;;5029494;28;20057;-68
2022/05/07 12:21:13;;;;;;;11.32;8.80;;;17.40;99.90;;;;;;5031561;28;20398;-63
2022/05/07 12:32:01;;;;;;;14.00;11.30;;;17.60;99.90;;;;;;5029490;28;20433;-62
2022/05/07 12:34:27;;;;;;;14.65;10.63;;;17.70;99.90;;;;;;5031265;28;20465;-63
2022/05/07 12:36:52;;;;;;;14.63;10.50;;;17.80;99.90;;;;;;5029457;28;20064;-65
2022/05/07 12:39:18;;;;;;;17.02;11.68;;;17.90;99.90;;;;;;5030202;28;20037;-64
2022/05/07 12:41:44;;;;;;;18.30;14.55;;;18.00;99.90;;;;;;5029678;28;20112;-67
2022/05/07 12:44:11;;;;;;;21.00;14.15;;;18.10;99.90;;;;;;5013225;28;20052;-61
2022/05/07 12:46:36;;;;;;;18.92;14.32;;;17.90;99.90;;;;;;5029875;28;20145;-62
2022/05/07 12:49:02;;;;;;;20.83;14.90;;;17.80;99.90;;;;;;5030539;28;20048;-61
2022/05/07 12:51:28;;;;;;;24.77;16.42;;;17.80;99.90;;;;;;5030913;28;20057;-62
2022/05/07 12:53:54;;;;;;;22.33;16.30;;;17.70;99.90;;;;;;5012967;28;20433;-63
2022/05/07 12:56:22;;;;;;;23.48;15.98;;;17.60;99.90;;;;;;5030966;28;20052;-63
2022/05/07 12:58:49;;;;;;;22.23;16.35;;;17.60;99.90;;;;;;5030389;28;20490;-68
2022/05/07 13:01:15;;;;;;;20.80;16.27;;;17.40;99.90;;;;;;5029584;28;20054;-63
2022/05/07 13:03:41;;;;;;;20.80;14.13;;;17.40;99.90;;;;;;5029781;28;20060;-62
2022/05/07 13:06:06;;;;;;;16.98;13.48;;;17.50;99.90;;;;;;5030420;28;20051;-64
2022/05/07 13:08:32;;;;;;;15.85;12.45;;;17.50;99.90;;;;;;5029437;28;20406;-63
2022/05/07 13:10:58;;;;;;;15.50;11.93;;;17.60;99.90;;;;;;5030253;28;20171;-62
2022/05/07 13:13:24;;;;;;;14.63;10.18;;;17.70;99.90;;;;;;5029576;28;20046;-62
2022/05/07 13:15:51;;;;;;;13.73;10.30;;;17.70;99.90;;;;;;5030279;28;20441;-67